Terminal Aerodrome Forecast
Issued by NWS Grand Rapids, MI

Home | Current Version | Previous Version | Text Only | Print | Product List | Glossary On
Versions: 1 2 3 4 5 6 7 8 9 10 11 12 13
973
FTUS43 KGRR 121153
TAFGRR
TAF
KGRR 121153Z 1212/1312 23010KT 6SM -SN OVC050
     FM121300 24012KT 4SM -SN BR OVC035
     FM121500 27012G20KT 3SM -SN OVC025
     FM121800 30015G25KT 5SM -SN BLSN OVC030
     FM122200 31015G25KT 5SM -SN BLSN OVC035
     FM130500 32012KT 6SM -SN OVC035=

USA.gov is the U.S. government's official web portal to all federal, state and local government web resources and services.